Time;durP1;ratioP1;P1;durP2;ratioP2;P2;SDS_P1;SDS_P2;PMS_P1;PMS_P2;Temp;Humidity;BMP_temperature;BMP_pressure;BME280_temperature;BME280_humidity;BME280_pressure;Samples;Min_cycle;Max_cycle;Signal;HPM_P1;HPM_P2
2022/08/15 00:01:18;;;;;;;7.10;4.20;;;21.70;99.90;;;;;;5010117;28;20529;-74
2022/08/15 00:03:47;;;;;;;4.53;3.70;;;21.70;99.90;;;;;;5010250;28;20478;-75
2022/08/15 00:06:18;;;;;;;5.20;4.00;;;21.60;99.90;;;;;;5009694;28;20419;-75
2022/08/15 00:08:53;;;;;;;5.87;3.87;;;21.50;99.90;;;;;;5010415;28;20503;-76
2022/08/15 00:11:33;;;;;;;5.87;4.27;;;21.60;99.90;;;;;;5010047;28;20438;-76
2022/08/15 00:14:13;;;;;;;8.63;3.80;;;21.60;99.90;;;;;;5010313;28;20980;-76
2022/08/15 00:16:41;;;;;;;7.30;3.80;;;21.60;99.90;;;;;;5009938;28;20420;-75
2022/08/15 00:19:12;;;;;;;3.83;3.53;;;21.60;99.90;;;;;;5009774;28;20429;-77
2022/08/15 00:21:43;;;;;;;5.87;3.80;;;21.60;99.90;;;;;;5009839;28;20527;-76
2022/08/15 00:24:11;;;;;;;4.67;4.27;;;21.60;99.90;;;;;;5009893;28;20555;-76
2022/08/15 00:26:37;;;;;;;4.67;3.90;;;21.60;99.90;;;;;;5009852;28;20497;-77
2022/08/15 00:29:04;;;;;;;5.80;3.30;;;21.60;99.90;;;;;;5009704;28;20425;-76
2022/08/15 00:31:31;;;;;;;7.23;4.10;;;21.60;99.90;;;;;;4991816;28;20446;-76
2022/08/15 00:33:58;;;;;;;4.70;3.90;;;21.60;99.70;;;;;;5009717;28;20947;-76
2022/08/15 00:36:25;;;;;;;5.30;3.73;;;21.60;99.90;;;;;;5009576;28;20811;-76
2022/08/15 00:38:51;;;;;;;5.60;4.03;;;21.60;99.80;;;;;;5010045;28;20425;-77
2022/08/15 00:44:05;;;;;;;6.10;3.60;;;21.60;99.90;;;;;;5009592;28;20288;-76
2022/08/15 00:46:31;;;;;;;6.40;3.70;;;21.50;99.90;;;;;;4975870;28;21032;-77
2022/08/15 00:48:57;;;;;;;6.27;3.50;;;21.50;99.90;;;;;;5009718;28;20587;-77
2022/08/15 00:51:59;;;;;;;7.00;3.90;;;21.50;99.90;;;;;;5009355;28;20203;-74
2022/08/15 00:54:34;;;;;;;5.20;3.83;;;21.50;99.90;;;;;;5009329;28;20458;-74
2022/08/15 00:57:06;;;;;;;6.10;3.93;;;21.60;99.90;;;;;;4992349;28;20940;-77
2022/08/15 00:59:37;;;;;;;3.57;3.27;;;21.50;99.90;;;;;;5009421;28;20445;-77
2022/08/15 01:02:11;;;;;;;6.00;3.43;;;21.50;99.90;;;;;;5009553;28;20456;-77
2022/08/15 01:04:37;;;;;;;6.60;3.70;;;21.50;99.90;;;;;;5009444;28;20463;-77
2022/08/15 01:07:04;;;;;;;9.10;3.00;;;21.40;99.90;;;;;;4975399;28;20440;-76
2022/08/15 01:09:31;;;;;;;5.80;3.23;;;21.50;99.90;;;;;;5009154;28;20417;-76
2022/08/15 01:12:10;;;;;;;5.50;3.10;;;21.40;99.90;;;;;;5009548;28;20483;-75
2022/08/15 01:14:38;;;;;;;6.83;3.17;;;21.40;99.90;;;;;;5009170;28;20506;-77
2022/08/15 01:17:06;;;;;;;9.93;4.37;;;21.30;99.90;;;;;;5008924;28;20424;-77
2022/08/15 01:19:41;;;;;;;3.37;3.07;;;21.30;99.90;;;;;;4975169;28;20428;-76
2022/08/15 01:22:40;;;;;;;7.30;3.20;;;21.30;99.90;;;;;;5008800;28;20495;-77
2022/08/15 01:25:20;;;;;;;4.43;3.10;;;21.20;99.90;;;;;;5009414;28;20414;-76
2022/08/15 01:27:51;;;;;;;4.93;3.27;;;21.20;99.90;;;;;;5008814;28;20413;-76
2022/08/15 01:30:20;;;;;;;6.00;3.30;;;21.10;99.90;;;;;;5008868;28;20494;-75
2022/08/15 01:32:46;;;;;;;6.33;3.67;;;21.10;99.90;;;;;;5008634;28;20443;-75
2022/08/15 01:35:13;;;;;;;6.90;3.87;;;21.10;99.90;;;;;;5009158;28;20936;-75
2022/08/15 01:37:40;;;;;;;4.83;3.87;;;21.10;99.90;;;;;;5009002;28;20897;-75
2022/08/15 01:40:41;;;;;;;5.33;3.77;;;21.10;99.90;;;;;;5008760;28;20790;-75
2022/08/15 01:43:09;;;;;;;7.80;3.50;;;21.20;99.90;;;;;;4977816;28;20555;-75
2022/08/15 01:45:39;;;;;;;6.40;3.93;;;21.20;99.90;;;;;;5008627;28;20491;-74
2022/08/15 01:48:17;;;;;;;4.50;3.87;;;21.10;99.90;;;;;;4990824;28;20893;-75
2022/08/15 01:50:46;;;;;;;4.30;3.50;;;21.10;99.90;;;;;;5008729;28;20459;-75
2022/08/15 01:53:28;;;;;;;4.70;3.57;;;21.10;99.90;;;;;;5008845;28;20417;-75
2022/08/15 01:56:19;;;;;;;7.47;3.47;;;21.10;99.90;;;;;;5008625;28;20423;-75
2022/08/15 01:58:45;;;;;;;4.87;3.73;;;21.10;99.90;;;;;;5009053;28;20465;-76
2022/08/15 02:01:20;;;;;;;8.70;3.67;;;21.10;99.90;;;;;;5008615;28;20831;-76
2022/08/15 02:03:47;;;;;;;4.97;3.60;;;21.10;99.90;;;;;;5008881;28;20865;-76
2022/08/15 02:06:15;;;;;;;5.13;3.20;;;21.00;99.90;;;;;;4990990;28;20506;-76
2022/08/15 02:08:43;;;;;;;7.43;4.23;;;21.00;99.90;;;;;;5008441;28;20424;-76
2022/08/15 02:11:17;;;;;;;6.00;3.33;;;21.00;99.90;;;;;;5008526;28;20490;-76
2022/08/15 02:13:46;;;;;;;3.70;3.37;;;20.90;99.90;;;;;;5008830;28;20476;-77
2022/08/15 02:16:13;;;;;;;4.13;3.53;;;21.00;99.90;;;;;;4990819;28;20446;-76
2022/08/15 02:18:39;;;;;;;7.43;3.63;;;21.00;99.90;;;;;;4990961;28;20437;-77
2022/08/15 02:21:05;;;;;;;4.83;3.37;;;21.00;99.90;;;;;;5008473;28;20550;-76
2022/08/15 02:23:31;;;;;;;7.50;4.10;;;21.10;99.90;;;;;;4990906;28;20514;-76
2022/08/15 02:25:58;;;;;;;4.97;3.33;;;21.10;99.90;;;;;;5008382;28;20427;-76
2022/08/15 02:28:25;;;;;;;9.30;3.27;;;21.10;99.90;;;;;;5009917;28;20428;-77
2022/08/15 02:30:53;;;;;;;9.67;3.03;;;21.10;99.90;;;;;;5011912;28;20502;-77
2022/08/15 02:33:19;;;;;;;4.17;3.30;;;21.10;99.90;;;;;;5011975;28;20425;-77
2022/08/15 02:35:45;;;;;;;4.00;3.60;;;21.20;99.90;;;;;;5012189;28;20831;-77
2022/08/15 02:38:10;;;;;;;5.73;3.10;;;21.20;99.90;;;;;;5011267;28;20423;-77
2022/08/15 02:40:36;;;;;;;6.40;3.10;;;21.20;99.90;;;;;;4993997;28;20332;-76
2022/08/15 02:43:05;;;;;;;6.97;3.33;;;21.20;99.90;;;;;;5012055;28;20221;-77
2022/08/15 02:45:37;;;;;;;8.93;3.60;;;21.10;99.90;;;;;;5011684;28;20228;-77
2022/08/15 02:48:06;;;;;;;5.03;3.63;;;21.10;99.90;;;;;;4993899;28;20864;-77
2022/08/15 02:50:33;;;;;;;3.63;3.23;;;21.00;99.90;;;;;;5011753;28;20424;-77
2022/08/15 02:53:00;;;;;;;5.27;3.80;;;21.00;99.90;;;;;;4993652;28;20471;-76
2022/08/15 02:55:26;;;;;;;6.07;3.87;;;20.90;99.90;;;;;;5011541;28;20428;-76
2022/08/15 02:57:52;;;;;;;5.03;3.33;;;20.90;99.90;;;;;;5011613;28;20480;-76
2022/08/15 03:00:18;;;;;;;6.43;3.57;;;20.90;99.90;;;;;;5011408;28;20420;-75
2022/08/15 03:02:53;;;;;;;5.90;3.00;;;20.90;99.90;;;;;;5011206;28;20258;-75
2022/08/15 03:05:20;;;;;;;7.07;3.43;;;20.90;99.90;;;;;;5011431;28;20940;-75
2022/08/15 03:07:46;;;;;;;3.47;3.17;;;20.90;99.90;;;;;;5011565;28;20427;-75
2022/08/15 03:10:12;;;;;;;3.50;3.10;;;20.90;99.90;;;;;;5011522;28;20423;-75
2022/08/15 03:13:02;;;;;;;11.87;3.20;;;20.90;99.90;;;;;;5011521;28;20208;-76
2022/08/15 03:15:37;;;;;;;4.60;3.10;;;20.90;99.90;;;;;;5011755;28;20177;-76
2022/08/15 03:18:02;;;;;;;5.50;3.33;;;20.90;99.90;;;;;;5011745;28;20412;-76
2022/08/15 03:20:28;;;;;;;8.97;3.20;;;20.90;99.90;;;;;;5011261;28;20423;-76
2022/08/15 03:22:54;;;;;;;3.67;2.80;;;20.90;99.90;;;;;;4993448;28;20259;-77
2022/08/15 03:25:21;;;;;;;3.03;2.60;;;20.90;99.90;;;;;;5011297;28;20181;-77
2022/08/15 03:27:47;;;;;;;5.90;2.90;;;20.90;99.90;;;;;;4993217;28;20200;-76
2022/08/15 03:30:15;;;;;;;5.50;3.33;;;20.80;99.90;;;;;;5011585;28;20412;-75
2022/08/15 03:32:47;;;;;;;2.80;2.53;;;20.80;99.90;;;;;;4993075;28;20567;-76
2022/08/15 03:35:13;;;;;;;4.03;3.10;;;20.80;99.90;;;;;;5010947;28;20499;-76
2022/08/15 03:37:39;;;;;;;2.90;2.60;;;20.90;99.90;;;;;;5010842;28;20810;-76
2022/08/15 03:40:06;;;;;;;3.20;2.67;;;20.80;99.90;;;;;;5010676;28;20963;-76
2022/08/15 03:42:33;;;;;;;7.83;2.80;;;20.90;99.90;;;;;;5010581;28;20933;-76
2022/08/15 03:45:09;;;;;;;5.13;2.47;;;20.90;99.90;;;;;;5010554;28;20471;-76
2022/08/15 03:47:36;;;;;;;4.73;3.07;;;20.90;99.90;;;;;;4992895;28;20889;-76
2022/08/15 03:50:03;;;;;;;5.10;2.50;;;20.80;99.90;;;;;;5010559;28;20432;-76
2022/08/15 03:52:29;;;;;;;4.27;2.17;;;20.90;99.90;;;;;;4993511;28;20810;-76
2022/08/15 03:54:54;;;;;;;4.13;2.23;;;20.80;99.90;;;;;;4976766;28;20427;-76
2022/08/15 03:57:20;;;;;;;4.70;2.87;;;20.80;99.90;;;;;;4976533;28;20203;-76
2022/08/15 03:59:46;;;;;;;2.93;2.07;;;20.80;99.90;;;;;;5010526;28;20197;-76
2022/08/15 04:02:12;;;;;;;5.13;2.30;;;20.80;99.90;;;;;;5010416;28;20642;-76
2022/08/15 04:04:38;;;;;;;3.07;2.03;;;20.90;99.90;;;;;;4992772;28;20210;-76
2022/08/15 04:07:04;;;;;;;3.13;2.10;;;21.00;99.90;;;;;;5010464;28;20447;-75
2022/08/15 04:09:30;;;;;;;2.57;2.30;;;21.00;99.90;;;;;;5010413;28;20420;-74
2022/08/15 04:11:57;;;;;;;3.20;2.07;;;21.00;99.90;;;;;;5010196;28;20791;-74
2022/08/15 04:14:23;;;;;;;2.97;1.70;;;21.00;99.90;;;;;;5010303;28;20427;-74
2022/08/15 04:16:48;;;;;;;3.10;2.40;;;21.00;99.90;;;;;;5010293;28;20427;-75
2022/08/15 04:19:15;;;;;;;2.80;2.03;;;20.90;99.90;;;;;;5010335;28;20432;-76
2022/08/15 04:21:42;;;;;;;3.20;2.20;;;21.00;99.90;;;;;;4992763;28;20622;-75
2022/08/15 04:24:08;;;;;;;8.43;2.20;;;21.00;99.90;;;;;;4992508;28;20474;-74
2022/08/15 04:26:34;;;;;;;4.33;2.20;;;21.00;99.90;;;;;;5010562;28;20430;-75
2022/08/15 04:29:00;;;;;;;3.23;2.00;;;21.00;99.90;;;;;;4992898;28;20209;-75
2022/08/15 04:31:26;;;;;;;3.63;2.90;;;20.90;99.90;;;;;;4992804;28;20447;-74
2022/08/15 04:33:52;;;;;;;4.17;2.00;;;20.90;99.90;;;;;;4992745;28;20490;-73
2022/08/15 04:36:19;;;;;;;3.50;1.87;;;20.90;99.90;;;;;;5010077;28;20267;-74
2022/08/15 04:38:47;;;;;;;3.70;2.30;;;20.80;99.90;;;;;;5009880;28;20197;-74
2022/08/15 04:41:14;;;;;;;5.00;1.93;;;20.80;99.90;;;;;;5009778;28;20529;-74
2022/08/15 04:43:42;;;;;;;7.33;2.03;;;20.80;99.90;;;;;;5009692;28;21040;-75
2022/08/15 04:46:08;;;;;;;8.17;2.03;;;20.80;99.90;;;;;;5009910;28;20444;-74
2022/08/15 04:48:33;;;;;;;2.27;2.07;;;20.80;99.90;;;;;;5010047;28;20972;-73
2022/08/15 04:51:02;;;;;;;2.10;1.90;;;20.80;99.90;;;;;;5009290;28;20420;-74
2022/08/15 04:53:33;;;;;;;5.07;2.27;;;20.80;99.90;;;;;;5010119;28;20700;-74
2022/08/15 04:56:00;;;;;;;3.77;2.27;;;20.80;99.90;;;;;;4992349;28;20513;-74
2022/08/15 04:58:26;;;;;;;2.20;2.00;;;20.70;99.90;;;;;;5010587;28;20417;-75
2022/08/15 05:00:59;;;;;;;1.80;1.70;;;20.70;99.90;;;;;;5010207;28;20918;-76
2022/08/15 05:03:25;;;;;;;2.10;1.90;;;20.70;99.90;;;;;;5010426;28;20666;-76
2022/08/15 05:05:58;;;;;;;3.10;1.97;;;20.70;99.90;;;;;;4992668;28;20416;-75
2022/08/15 05:08:26;;;;;;;4.00;2.20;;;20.70;99.90;;;;;;4993128;28;21028;-75
2022/08/15 05:10:57;;;;;;;3.10;2.07;;;20.70;99.90;;;;;;5010071;28;20419;-75
2022/08/15 05:13:25;;;;;;;3.47;1.90;;;20.70;99.90;;;;;;5010201;28;20452;-76
2022/08/15 05:15:52;;;;;;;4.83;2.10;;;20.60;99.90;;;;;;5010030;28;20451;-75
2022/08/15 05:18:18;;;;;;;2.80;1.77;;;20.60;99.90;;;;;;5009644;28;20425;-76
2022/08/15 05:20:43;;;;;;;5.30;1.90;;;20.50;99.90;;;;;;4991306;28;20444;-76
2022/08/15 05:23:13;;;;;;;8.20;1.80;;;20.50;99.90;;;;;;5007770;28;20271;-77
2022/08/15 05:25:42;;;;;;;3.53;1.73;;;20.40;99.90;;;;;;5007617;28;20204;-76
2022/08/15 05:28:09;;;;;;;7.30;2.20;;;20.50;99.90;;;;;;5007490;28;20458;-76
2022/08/15 05:30:35;;;;;;;6.17;2.13;;;20.50;99.90;;;;;;5007776;28;20553;-77
2022/08/15 05:33:08;;;;;;;3.97;2.63;;;20.60;99.90;;;;;;5007676;28;20447;-76
2022/08/15 05:35:35;;;;;;;3.23;2.50;;;20.70;99.90;;;;;;5007846;28;20424;-78
2022/08/15 05:38:05;;;;;;;3.93;2.07;;;20.70;99.90;;;;;;5009031;28;21008;-78
2022/08/15 05:40:49;;;;;;;2.60;2.10;;;20.60;99.90;;;;;;4991681;28;20428;-79
2022/08/15 05:43:52;;;;;;;4.27;2.13;;;20.60;99.90;;;;;;5008600;28;20452;-78
2022/08/15 05:46:29;;;;;;;2.90;2.03;;;20.50;99.90;;;;;;5009254;28;20493;-78
2022/08/15 05:49:08;;;;;;;8.10;2.57;;;20.50;99.90;;;;;;5008629;28;20482;-78
2022/08/15 05:52:01;;;;;;;6.30;1.90;;;20.40;99.90;;;;;;4990740;28;20443;-78
2022/08/15 05:54:52;;;;;;;3.03;1.77;;;20.30;99.90;;;;;;4971984;28;20428;-78
2022/08/15 05:57:25;;;;;;;3.47;2.13;;;20.30;99.90;;;;;;5008683;28;20420;-79
2022/08/15 05:59:56;;;;;;;6.47;2.10;;;20.40;99.90;;;;;;5008007;28;20408;-79
2022/08/15 06:02:39;;;;;;;3.70;1.63;;;20.50;99.90;;;;;;4974652;28;20468;-78
2022/08/15 06:05:13;;;;;;;2.17;2.00;;;20.50;99.90;;;;;;5012394;28;20525;-78
2022/08/15 06:07:43;;;;;;;4.47;2.40;;;20.50;99.90;;;;;;5012452;28;20623;-78
2022/08/15 06:10:25;;;;;;;4.97;2.23;;;20.50;99.90;;;;;;4978163;28;20436;-77
2022/08/15 06:13:13;;;;;;;3.40;1.80;;;20.50;99.90;;;;;;5011235;28;20441;-77
2022/08/15 06:15:54;;;;;;;2.80;2.27;;;20.50;99.90;;;;;;4993572;28;21260;-77
2022/08/15 06:18:22;;;;;;;6.10;2.50;;;20.40;99.90;;;;;;4993535;28;20482;-77
2022/08/15 06:20:54;;;;;;;3.97;2.00;;;20.40;99.90;;;;;;4993474;28;21037;-77
2022/08/15 06:23:27;;;;;;;3.97;2.27;;;20.40;99.90;;;;;;5011254;28;21177;-77
2022/08/15 06:26:24;;;;;;;4.80;2.17;;;20.30;99.90;;;;;;5010861;28;20437;-77
2022/08/15 06:29:19;;;;;;;6.80;2.07;;;20.20;99.90;;;;;;4993438;28;20431;-77
2022/08/15 06:32:18;;;;;;;1.70;1.57;;;20.20;99.90;;;;;;5010845;28;20850;-77
2022/08/15 06:34:47;;;;;;;1.90;1.80;;;20.00;99.90;;;;;;4980547;28;20439;-77
2022/08/15 06:37:36;;;;;;;5.23;2.00;;;20.00;99.90;;;;;;4993989;28;20807;-77
2022/08/15 06:40:52;;;;;;;2.77;1.90;;;20.00;99.90;;;;;;5012437;28;20412;-77
2022/08/15 06:43:18;;;;;;;5.20;2.37;;;20.00;99.90;;;;;;5012070;28;20470;-77
2022/08/15 06:45:47;;;;;;;4.10;1.97;;;20.30;99.90;;;;;;4994074;28;20506;-77
2022/08/15 06:48:23;;;;;;;5.80;2.03;;;20.60;99.90;;;;;;5011941;28;20208;-77
2022/08/15 06:50:55;;;;;;;5.90;2.53;;;20.80;99.90;;;;;;5011873;28;20518;-77
2022/08/15 06:53:41;;;;;;;4.20;2.20;;;20.90;99.90;;;;;;5012212;28;20441;-77
2022/08/15 06:56:27;;;;;;;4.60;2.37;;;21.10;99.90;;;;;;4997954;28;20439;-77
2022/08/15 06:59:31;;;;;;;3.87;2.27;;;21.30;99.90;;;;;;4993500;28;20487;-76
2022/08/15 07:02:01;;;;;;;5.50;2.30;;;21.60;99.90;;;;;;5011356;28;20463;-77
2022/08/15 07:04:38;;;;;;;3.67;2.43;;;21.80;99.90;;;;;;5011256;28;20467;-77
2022/08/15 07:07:22;;;;;;;2.70;2.10;;;22.00;99.90;;;;;;4993560;28;20434;-77
2022/08/15 07:10:16;;;;;;;2.30;1.87;;;22.10;99.90;;;;;;5011368;28;20421;-77
2022/08/15 07:13:02;;;;;;;3.63;1.83;;;22.10;99.90;;;;;;4985547;28;20482;-77
2022/08/15 07:15:36;;;;;;;4.17;2.40;;;22.10;99.90;;;;;;4992768;28;20529;-77
2022/08/15 07:18:08;;;;;;;5.23;2.27;;;22.20;99.90;;;;;;4993033;28;20847;-77
2022/08/15 07:20:35;;;;;;;2.03;1.90;;;22.20;99.90;;;;;;4993072;28;20492;-77
2022/08/15 07:23:24;;;;;;;3.30;1.70;;;22.20;99.90;;;;;;5010325;28;20493;-77
2022/08/15 07:25:51;;;;;;;4.53;1.90;;;22.20;99.90;;;;;;5010319;28;20476;-77
2022/08/15 07:28:26;;;;;;;2.67;1.80;;;22.20;99.90;;;;;;5010157;28;20966;-77
2022/08/15 07:31:00;;;;;;;4.30;1.90;;;22.30;99.90;;;;;;5009824;28;20953;-77
2022/08/15 07:33:45;;;;;;;5.70;2.20;;;22.20;99.90;;;;;;4976298;28;20929;-77
2022/08/15 07:36:16;;;;;;;4.57;2.20;;;22.30;99.90;;;;;;5009970;28;20419;-77
2022/08/15 07:38:42;;;;;;;2.60;1.80;;;22.30;99.90;;;;;;5009587;28;20501;-77
2022/08/15 07:41:36;;;;;;;3.80;1.80;;;22.30;99.90;;;;;;5009454;28;20458;-77
2022/08/15 07:44:27;;;;;;;2.63;1.97;;;22.30;99.90;;;;;;5008984;28;20488;-77
2022/08/15 07:47:04;;;;;;;5.90;1.63;;;22.50;99.90;;;;;;5009440;28;20416;-77
2022/08/15 07:49:34;;;;;;;4.40;1.93;;;22.60;99.90;;;;;;5009340;28;20429;-77
2022/08/15 07:52:20;;;;;;;4.77;1.97;;;22.60;99.90;;;;;;4991330;28;20467;-77
2022/08/15 07:54:49;;;;;;;3.90;1.87;;;22.70;99.90;;;;;;5009373;28;20454;-76
2022/08/15 07:57:34;;;;;;;3.23;1.70;;;22.80;98.50;;;;;;4991378;28;20441;-77
2022/08/15 08:00:06;;;;;;;2.53;1.70;;;22.80;97.90;;;;;;5009277;28;20990;-76
2022/08/15 08:02:48;;;;;;;2.23;1.40;;;22.80;97.70;;;;;;5008811;28;20619;-76
2022/08/15 08:05:15;;;;;;;8.10;1.97;;;22.80;97.80;;;;;;5008945;28;21095;-77
2022/08/15 08:07:44;;;;;;;2.50;1.63;;;22.80;97.70;;;;;;5009008;28;20414;-77
2022/08/15 08:10:25;;;;;;;3.40;1.63;;;22.70;96.80;;;;;;4991042;28;20436;-76
2022/08/15 08:13:11;;;;;;;6.00;1.53;;;22.80;96.90;;;;;;5008890;28;20435;-76
2022/08/15 08:15:41;;;;;;;1.70;1.60;;;22.80;96.70;;;;;;5009134;28;21087;-76
2022/08/15 08:18:29;;;;;;;1.93;1.50;;;22.90;96.50;;;;;;5009327;28;21027;-76
2022/08/15 08:21:05;;;;;;;3.13;1.67;;;22.90;97.10;;;;;;5009150;28;20426;-76
2022/08/15 08:23:40;;;;;;;2.00;1.70;;;22.90;96.80;;;;;;5009165;28;20473;-76
2022/08/15 08:26:13;;;;;;;2.50;1.67;;;23.00;96.40;;;;;;5008796;28;20417;-77
2022/08/15 08:29:11;;;;;;;2.73;1.80;;;23.10;97.10;;;;;;5009030;28;20406;-77
2022/08/15 08:32:01;;;;;;;2.87;1.60;;;23.20;96.70;;;;;;4993353;28;20496;-77
2022/08/15 08:34:54;;;;;;;1.90;1.60;;;23.30;96.60;;;;;;5008605;28;20418;-77
2022/08/15 08:37:41;;;;;;;3.60;1.83;;;23.50;95.50;;;;;;4997984;28;20881;-77
2022/08/15 08:43:42;;;;;;;3.87;1.90;;;23.50;95.40;;;;;;5008126;28;20841;-77
2022/08/15 08:46:45;;;;;;;2.50;2.20;;;23.50;95.50;;;;;;5008114;28;20413;-77
2022/08/15 08:49:39;;;;;;;4.40;1.80;;;23.60;95.50;;;;;;5008360;28;20502;-77
2022/08/15 08:52:05;;;;;;;2.23;1.80;;;23.80;95.40;;;;;;5007974;28;21237;-77
2022/08/15 08:54:50;;;;;;;5.30;1.80;;;23.80;94.30;;;;;;4990039;28;20576;-77
2022/08/15 08:57:23;;;;;;;2.40;1.90;;;24.00;94.10;;;;;;5007770;28;20796;-77
2022/08/15 08:59:59;;;;;;;9.50;2.27;;;24.20;93.50;;;;;;5007969;28;20430;-77
2022/08/15 09:02:34;;;;;;;2.20;1.93;;;24.30;93.20;;;;;;5007670;28;21050;-77
2022/08/15 09:05:07;;;;;;;3.10;1.97;;;24.50;93.10;;;;;;5007877;28;20966;-77
2022/08/15 09:07:38;;;;;;;2.33;1.50;;;24.60;92.30;;;;;;4990089;28;20420;-77
2022/08/15 09:10:07;;;;;;;1.87;1.77;;;24.80;92.50;;;;;;5007929;28;20446;-77
2022/08/15 09:15:28;;;;;;;1.90;1.80;;;25.10;90.70;;;;;;5008362;28;20453;-77
2022/08/15 09:18:04;;;;;;;2.03;1.83;;;25.10;89.70;;;;;;4990342;28;20418;-77
2022/08/15 09:20:36;;;;;;;3.87;2.00;;;25.40;90.00;;;;;;5008386;28;20419;-77
2022/08/15 09:23:08;;;;;;;5.23;2.00;;;25.90;89.70;;;;;;5008166;28;20450;-78
2022/08/15 09:25:40;;;;;;;2.70;2.10;;;26.30;87.00;;;;;;5008264;28;20510;-77
2022/08/15 09:28:27;;;;;;;2.63;1.87;;;26.50;86.70;;;;;;4990024;28;20955;-77
2022/08/15 09:30:54;;;;;;;3.33;1.90;;;27.00;83.70;;;;;;5008036;28;20439;-77
2022/08/15 09:33:57;;;;;;;2.63;1.60;;;27.20;81.60;;;;;;5008026;28;20449;-77
2022/08/15 09:37:18;;;;;;;2.13;1.90;;;27.70;80.30;;;;;;5007877;28;20909;-77
2022/08/15 09:40:20;;;;;;;1.70;1.60;;;27.90;78.50;;;;;;4973729;28;20424;-77
2022/08/15 09:43:24;;;;;;;5.43;1.90;;;27.80;77.10;;;;;;4989581;28;20983;-77
2022/08/15 09:46:09;;;;;;;2.53;1.87;;;27.60;77.00;;;;;;5007515;28;21230;-77
2022/08/15 09:49:09;;;;;;;3.30;1.70;;;27.70;77.20;;;;;;5007558;28;20792;-76
2022/08/15 09:51:58;;;;;;;3.90;1.60;;;28.10;75.60;;;;;;4976781;28;20470;-77
2022/08/15 09:54:27;;;;;;;1.90;1.80;;;28.50;73.00;;;;;;5007480;28;20432;-77
2022/08/15 09:57:19;;;;;;;9.43;2.13;;;28.40;73.70;;;;;;4989896;28;20515;-77
2022/08/15 09:59:51;;;;;;;2.33;1.60;;;28.20;71.90;;;;;;5007768;28;20428;-77
2022/08/15 10:02:22;;;;;;;2.07;1.73;;;28.80;72.10;;;;;;5007481;28;20505;-77
2022/08/15 10:04:48;;;;;;;3.30;1.60;;;29.30;71.20;;;;;;5007844;28;20470;-77
2022/08/15 10:07:14;;;;;;;2.53;1.87;;;29.40;69.10;;;;;;4989988;28;20432;-77
2022/08/15 10:09:58;;;;;;;1.60;1.50;;;29.60;66.70;;;;;;5008016;28;20492;-77
2022/08/15 10:12:23;;;;;;;1.90;1.80;;;29.50;65.10;;;;;;5007826;28;20197;-77
2022/08/15 10:15:01;;;;;;;1.73;1.60;;;29.20;65.60;;;;;;4990124;28;20520;-77
2022/08/15 10:17:34;;;;;;;1.80;1.70;;;29.30;65.60;;;;;;5007195;28;20236;-77
2022/08/15 10:20:15;;;;;;;2.77;1.53;;;29.40;63.10;;;;;;4989823;28;20505;-77
2022/08/15 10:23:10;;;;;;;2.07;1.37;;;29.40;63.80;;;;;;5006840;28;20924;-77
2022/08/15 10:25:37;;;;;;;1.93;1.67;;;30.10;64.40;;;;;;5006958;28;20914;-77
2022/08/15 10:28:06;;;;;;;2.73;1.30;;;30.40;61.60;;;;;;5006836;28;20832;-77
2022/08/15 10:30:56;;;;;;;2.10;1.30;;;30.80;58.00;;;;;;4989338;28;20967;-77
2022/08/15 10:33:32;;;;;;;1.97;1.70;;;30.80;57.10;;;;;;4994110;28;20440;-77
2022/08/15 10:36:13;;;;;;;1.67;1.57;;;30.90;56.90;;;;;;5007899;28;20411;-77
2022/08/15 10:38:44;;;;;;;1.53;1.43;;;30.90;56.80;;;;;;4989373;28;20424;-77
2022/08/15 10:41:13;;;;;;;2.67;1.43;;;31.10;58.40;;;;;;5007586;28;20438;-77
2022/08/15 10:43:58;;;;;;;2.23;1.87;;;31.10;56.00;;;;;;5007433;28;20469;-77
2022/08/15 10:46:43;;;;;;;3.40;1.70;;;31.40;58.30;;;;;;5007953;28;20417;-77
2022/08/15 10:49:38;;;;;;;4.63;1.50;;;31.40;56.60;;;;;;5008627;28;20850;-77
2022/08/15 10:52:32;;;;;;;1.80;1.70;;;31.30;55.60;;;;;;5010647;28;20444;-77
2022/08/15 10:55:25;;;;;;;2.97;1.90;;;31.40;56.30;;;;;;5010623;28;20511;-78
2022/08/15 10:58:19;;;;;;;2.27;1.60;;;31.60;54.30;;;;;;5010604;28;20427;-77
2022/08/15 11:00:53;;;;;;;3.97;2.00;;;31.60;54.40;;;;;;5010975;28;20436;-77
2022/08/15 11:03:41;;;;;;;6.13;1.60;;;31.70;53.30;;;;;;4993215;28;20471;-78
2022/08/15 11:06:14;;;;;;;2.47;2.33;;;31.60;53.10;;;;;;5010659;28;20408;-78
2022/08/15 11:09:07;;;;;;;3.20;2.00;;;31.90;53.30;;;;;;5011938;28;20417;-79
2022/08/15 11:11:39;;;;;;;1.77;1.67;;;31.70;53.70;;;;;;5011949;28;20485;-79
2022/08/15 11:14:08;;;;;;;2.17;1.97;;;32.10;52.80;;;;;;4977443;28;20436;-79
2022/08/15 11:16:37;;;;;;;2.73;2.07;;;32.00;51.90;;;;;;4993720;28;20427;-79
2022/08/15 11:19:25;;;;;;;2.70;2.10;;;32.10;53.10;;;;;;5011854;28;20519;-79
2022/08/15 11:22:06;;;;;;;2.10;2.00;;;32.00;52.70;;;;;;5012244;28;20440;-79
2022/08/15 11:24:38;;;;;;;2.20;2.00;;;32.10;51.20;;;;;;5011575;28;20520;-79
2022/08/15 11:27:12;;;;;;;2.43;2.23;;;32.30;51.10;;;;;;5011875;28;20408;-79
2022/08/15 11:29:39;;;;;;;3.03;1.80;;;32.50;50.40;;;;;;5012493;28;21214;-79
2022/08/15 11:32:05;;;;;;;2.40;2.30;;;32.50;50.90;;;;;;5011816;28;20443;-79
2022/08/15 11:34:38;;;;;;;3.27;2.03;;;32.50;50.80;;;;;;5011758;28;20431;-79
2022/08/15 11:37:09;;;;;;;2.87;2.07;;;32.60;50.50;;;;;;5010717;28;20438;-77
2022/08/15 11:39:41;;;;;;;3.37;2.23;;;32.70;49.10;;;;;;5009619;28;20420;-77
2022/08/15 11:42:13;;;;;;;2.83;2.20;;;32.90;49.70;;;;;;5009724;28;20444;-77
2022/08/15 11:44:52;;;;;;;2.60;2.00;;;32.80;49.50;;;;;;4992808;28;20565;-77
2022/08/15 11:47:19;;;;;;;2.10;1.90;;;32.70;48.50;;;;;;5009584;28;20491;-77
2022/08/15 11:49:55;;;;;;;1.70;1.60;;;32.70;48.60;;;;;;5009396;28;20932;-77
2022/08/15 11:52:33;;;;;;;3.00;1.80;;;32.90;49.20;;;;;;4991813;28;20450;-78
2022/08/15 11:55:29;;;;;;;3.20;2.07;;;32.70;47.70;;;;;;5010172;28;20431;-78
2022/08/15 11:58:00;;;;;;;4.37;2.60;;;32.00;49.00;;;;;;5009569;28;20424;-78
2022/08/15 12:00:57;;;;;;;2.50;1.90;;;32.50;50.10;;;;;;5008310;28;20440;-77
2022/08/15 12:03:32;;;;;;;2.80;2.20;;;32.80;48.80;;;;;;5012766;28;20459;-78
2022/08/15 12:06:19;;;;;;;2.53;2.30;;;33.00;48.30;;;;;;5013188;28;20411;-78
2022/08/15 12:08:47;;;;;;;4.93;1.80;;;33.10;48.30;;;;;;5013123;28;20465;-78
2022/08/15 12:11:12;;;;;;;3.43;2.10;;;33.10;47.30;;;;;;5012757;28;20436;-78
2022/08/15 12:13:41;;;;;;;4.13;2.70;;;33.00;48.10;;;;;;5012650;28;20424;-77
2022/08/15 12:16:22;;;;;;;2.53;2.33;;;33.10;48.00;;;;;;5013337;28;20649;-77
2022/08/15 12:18:49;;;;;;;2.30;2.20;;;33.40;47.30;;;;;;5012081;28;20416;-78
2022/08/15 12:21:16;;;;;;;2.50;2.20;;;33.40;46.90;;;;;;5011638;28;20443;-78
2022/08/15 12:24:02;;;;;;;2.50;2.30;;;33.30;47.20;;;;;;4994664;28;20566;-78
2022/08/15 12:26:29;;;;;;;2.80;2.60;;;32.60;46.80;;;;;;5012702;28;20519;-78
2022/08/15 12:28:55;;;;;;;4.87;2.50;;;32.00;48.00;;;;;;5012335;28;20634;-78
2022/08/15 12:31:27;;;;;;;2.33;2.23;;;31.50;48.90;;;;;;4994050;28;20451;-78
2022/08/15 12:34:13;;;;;;;2.40;2.20;;;31.30;48.50;;;;;;5011312;28;20680;-78
2022/08/15 12:36:42;;;;;;;2.70;2.20;;;31.00;48.40;;;;;;4993347;28;20432;-78
2022/08/15 12:39:09;;;;;;;2.40;2.20;;;30.70;49.00;;;;;;4993891;28;20473;-78
2022/08/15 12:41:34;;;;;;;2.47;2.27;;;30.40;50.90;;;;;;5011698;28;20948;-78
2022/08/15 12:44:02;;;;;;;2.50;2.17;;;30.20;52.10;;;;;;4993052;28;20479;-78
2022/08/15 12:46:27;;;;;;;4.37;2.60;;;30.00;51.50;;;;;;4992419;28;20243;-78
2022/08/15 12:48:53;;;;;;;4.50;2.50;;;29.80;52.00;;;;;;4991854;28;20493;-78
2022/08/15 12:51:19;;;;;;;2.40;2.00;;;29.90;51.60;;;;;;4975686;28;21026;-78
2022/08/15 12:53:45;;;;;;;6.13;2.70;;;30.60;51.20;;;;;;5010263;28;20268;-78
2022/08/15 12:56:11;;;;;;;2.90;2.10;;;31.20;49.50;;;;;;5010473;28;20259;-78
2022/08/15 12:58:38;;;;;;;2.67;2.07;;;31.70;49.00;;;;;;5011152;28;20499;-78
2022/08/15 13:01:07;;;;;;;5.50;2.40;;;31.60;49.60;;;;;;5011156;28;20440;-77
2022/08/15 13:03:34;;;;;;;2.73;2.53;;;31.00;48.00;;;;;;4992503;28;20585;-77
2022/08/15 13:06:14;;;;;;;3.73;2.23;;;30.50;49.50;;;;;;5010191;28;20951;-78
2022/08/15 13:08:42;;;;;;;4.20;2.43;;;30.20;50.00;;;;;;5010157;28;20411;-78
2022/08/15 13:11:09;;;;;;;5.40;2.90;;;29.90;51.80;;;;;;5009573;28;20435;-77
2022/08/15 13:13:35;;;;;;;2.80;2.20;;;29.70;53.40;;;;;;4991347;28;20416;-77
2022/08/15 13:16:02;;;;;;;4.43;2.10;;;29.30;51.60;;;;;;4974857;28;20458;-77
2022/08/15 13:18:28;;;;;;;2.13;2.03;;;29.10;52.40;;;;;;4990920;28;20426;-77
2022/08/15 13:23:39;;;;;;;4.80;2.50;;;28.90;52.10;;;;;;5008626;28;21003;-77
2022/08/15 13:26:11;;;;;;;3.30;2.20;;;28.70;56.10;;;;;;5008445;28;20434;-77
2022/08/15 13:28:38;;;;;;;3.80;2.73;;;28.60;55.30;;;;;;5008480;28;20420;-77
2022/08/15 13:31:05;;;;;;;3.77;2.37;;;28.30;52.40;;;;;;5008266;28;20961;-77
2022/08/15 13:33:32;;;;;;;3.47;3.10;;;28.10;52.90;;;;;;4990859;28;20420;-77
2022/08/15 13:35:58;;;;;;;4.47;2.73;;;27.80;52.80;;;;;;4990440;28;20493;-77